Time,TemperatureF,DewpointF,PressureIn,WindDirection,WindDirectionDegrees,WindSpeedMPH,WindSpeedGustMPH,Humidity,HourlyPrecipIn,Conditions,Clouds,dailyrainin,SoftwareType,DateUTC
2013-01-15 00:12:00,19.0,18.0,-100.00,North,5,0.0,2.0,92,-99.99,,,-99.99,,2013-01-15 05:12:00,
2013-01-15 00:22:00,19.0,18.0,-100.00,North,5,0.0,2.0,92,-99.99,,,-99.99,,2013-01-15 05:22:00,
2013-01-15 00:42:00,20.0,18.0,-100.00,North,5,3.0,6.0,93,-99.99,,,-99.99,,2013-01-15 05:42:00,
2013-01-15 00:52:00,20.0,18.0,-100.00,North,5,3.0,6.0,93,-99.99,,,-99.99,,2013-01-15 05:52:00,
2013-01-15 01:12:00,20.0,19.0,-100.00,North,5,2.0,5.0,93,-99.99,,,-99.99,,2013-01-15 06:12:00,
2013-01-15 01:22:00,20.0,19.0,-100.00,North,5,2.0,5.0,93,-99.99,,,-99.99,,2013-01-15 06:22:00,
2013-01-15 01:43:00,21.0,19.0,-100.00,North,5,4.0,7.0,91,-99.99,,,-99.99,,2013-01-15 06:43:00,
2013-01-15 01:52:00,21.0,19.0,-100.00,North,5,4.0,7.0,91,-99.99,,,-99.99,,2013-01-15 06:52:00,
2013-01-15 02:12:00,21.0,19.0,-100.00,North,5,5.0,6.0,91,-99.99,,,-99.99,,2013-01-15 07:12:00,
2013-01-15 02:22:00,21.0,19.0,-100.00,North,5,5.0,6.0,91,-99.99,,,-99.99,,2013-01-15 07:22:00,
2013-01-15 02:42:00,19.0,18.0,-100.00,North,5,2.0,6.0,92,-99.99,,,-99.99,,2013-01-15 07:42:00,
2013-01-15 02:52:00,19.0,18.0,-100.00,North,5,2.0,6.0,92,-99.99,,,-99.99,,2013-01-15 07:52:00,
2013-01-15 03:12:00,19.0,17.0,-100.00,North,5,4.0,6.0,93,-99.99,,,-99.99,,2013-01-15 08:12:00,
2013-01-15 03:22:00,19.0,17.0,-100.00,North,5,4.0,6.0,93,-99.99,,,-99.99,,2013-01-15 08:22:00,
2013-01-15 03:43:00,18.0,17.0,-100.00,North,5,4.0,6.0,94,-99.99,,,-99.99,,2013-01-15 08:43:00,
2013-01-15 03:52:00,18.0,17.0,-100.00,North,5,4.0,6.0,94,-99.99,,,-99.99,,2013-01-15 08:52:00,
2013-01-15 04:12:00,18.0,17.0,-100.00,North,5,2.0,4.0,94,-99.99,,,-99.99,,2013-01-15 09:12:00,
2013-01-15 04:22:00,18.0,17.0,-100.00,North,5,2.0,4.0,94,-99.99,,,-99.99,,2013-01-15 09:22:00,
2013-01-15 04:42:00,18.0,17.0,-100.00,North,5,2.0,4.0,95,-99.99,,,-99.99,,2013-01-15 09:42:00,
2013-01-15 04:52:00,18.0,17.0,-100.00,North,5,2.0,4.0,95,-99.99,,,-99.99,,2013-01-15 09:52:00,
2013-01-15 05:42:00,18.0,17.0,-100.00,North,5,3.0,4.0,96,-99.99,,,-99.99,,2013-01-15 10:42:00,
2013-01-15 05:52:00,18.0,17.0,-100.00,North,5,3.0,4.0,96,-99.99,,,-99.99,,2013-01-15 10:52:00,
2013-01-15 06:12:00,18.0,17.0,-100.00,North,5,4.0,6.0,96,-99.99,,,-99.99,,2013-01-15 11:12:00,
2013-01-15 06:23:00,18.0,17.0,-100.00,North,5,4.0,6.0,96,-99.99,,,-99.99,,2013-01-15 11:23:00,
2013-01-15 06:43:00,18.0,17.0,-100.00,North,5,4.0,7.0,96,-99.99,,,-99.99,,2013-01-15 11:43:00,
2013-01-15 06:52:00,18.0,17.0,-100.00,North,5,4.0,7.0,96,-99.99,,,-99.99,,2013-01-15 11:52:00,
2013-01-15 07:12:00,18.0,17.0,-100.00,North,5,6.0,7.0,95,-99.99,,,-99.99,,2013-01-15 12:12:00,
2013-01-15 07:22:00,18.0,17.0,-100.00,North,5,6.0,7.0,95,-99.99,,,-99.99,,2013-01-15 12:22:00,
2013-01-15 07:33:00,18.0,17.0,-100.00,North,5,5.0,6.0,94,-99.99,,,-99.99,,2013-01-15 12:33:00,
2013-01-15 07:43:00,18.0,17.0,-100.00,North,5,5.0,6.0,94,-99.99,,,-99.99,,2013-01-15 12:43:00,
2013-01-15 07:53:00,18.0,17.0,-100.00,North,5,5.0,6.0,94,-99.99,,,-99.99,,2013-01-15 12:53:00,
2013-01-15 08:03:00,18.0,17.0,-100.00,North,5,4.0,5.0,94,-99.99,,,-99.99,,2013-01-15 13:03:00,
2013-01-15 08:13:00,18.0,17.0,-100.00,North,5,4.0,5.0,94,-99.99,,,-99.99,,2013-01-15 13:13:00,
2013-01-15 08:23:00,18.0,17.0,-100.00,North,5,4.0,5.0,94,-99.99,,,-99.99,,2013-01-15 13:23:00,
2013-01-15 10:13:00,23.0,20.0,-100.00,North,5,7.0,14.0,86,-99.99,,,-99.99,,2013-01-15 15:13:00,
2013-01-15 10:23:00,23.0,20.0,-100.00,North,5,7.0,14.0,86,-99.99,,,-99.99,,2013-01-15 15:23:00,
2013-01-15 13:21:00,29.0,17.0,-100.00,North,5,9.0,14.0,60,-99.99,,,-99.99,,2013-01-15 18:21:00,
2013-01-15 14:03:00,29.0,17.0,-100.00,North,5,9.0,14.0,60,-99.99,,,-99.99,,2013-01-15 19:03:00,
2013-01-15 14:13:00,29.0,17.0,-100.00,North,5,9.0,14.0,60,-99.99,,,-99.99,,2013-01-15 19:13:00,
2013-01-15 15:04:00,28.0,16.0,-100.00,North,5,12.0,14.0,59,-99.99,,,-99.99,,2013-01-15 20:04:00,
2013-01-15 15:12:00,28.0,16.0,-100.00,North,5,12.0,14.0,59,-99.99,,,-99.99,,2013-01-15 20:12:00,
2013-01-15 15:23:00,28.0,16.0,-100.00,North,5,12.0,14.0,59,-99.99,,,-99.99,,2013-01-15 20:23:00,
2013-01-15 15:43:00,28.0,17.0,-100.00,North,5,9.0,14.0,61,-99.99,,,-99.99,,2013-01-15 20:43:00,
2013-01-15 15:53:00,28.0,17.0,-100.00,North,5,9.0,14.0,61,-99.99,,,-99.99,,2013-01-15 20:53:00,
2013-01-15 16:23:00,28.0,18.0,-100.00,North,5,8.0,11.0,64,-99.99,,,-99.99,,2013-01-15 21:23:00,
2013-01-15 16:34:00,28.0,18.0,-100.00,North,5,7.0,12.0,63,-99.99,,,-99.99,,2013-01-15 21:34:00,
2013-01-15 16:43:00,28.0,18.0,-100.00,North,5,7.0,12.0,63,-99.99,,,-99.99,,2013-01-15 21:43:00,
2013-01-15 16:53:00,28.0,18.0,-100.00,North,5,7.0,12.0,63,-99.99,,,-99.99,,2013-01-15 21:53:00,
2013-01-15 17:03:00,28.0,18.0,-100.00,North,5,8.0,11.0,64,-99.99,,,-99.99,,2013-01-15 22:03:00,
2013-01-15 17:12:00,28.0,18.0,-100.00,North,5,8.0,11.0,64,-99.99,,,-99.99,,2013-01-15 22:12:00,
2013-01-15 17:43:00,28.0,19.0,-100.00,North,5,9.0,12.0,67,-99.99,,,-99.99,,2013-01-15 22:43:00,
2013-01-15 17:52:00,28.0,19.0,-100.00,North,5,9.0,12.0,67,-99.99,,,-99.99,,2013-01-15 22:52:00,
2013-01-15 18:03:00,28.0,18.0,-100.00,North,5,9.0,12.0,67,-99.99,,,-99.99,,2013-01-15 23:03:00,
2013-01-15 18:13:00,28.0,18.0,-100.00,North,5,9.0,12.0,67,-99.99,,,-99.99,,2013-01-15 23:13:00,
2013-01-15 18:23:00,28.0,18.0,-100.00,North,5,9.0,12.0,67,-99.99,,,-99.99,,2013-01-15 23:23:00,
2013-01-15 19:03:00,28.0,20.0,-100.00,North,5,6.0,11.0,69,-99.99,,,-99.99,,2013-01-16 00:03:00,
2013-01-15 19:13:00,28.0,20.0,-100.00,North,5,6.0,11.0,69,-99.99,,,-99.99,,2013-01-16 00:13:00,
2013-01-15 19:23:00,28.0,20.0,-100.00,North,5,6.0,11.0,69,-99.99,,,-99.99,,2013-01-16 00:23:00,
2013-01-15 19:43:00,28.0,20.0,-100.00,North,5,6.0,12.0,72,-99.99,,,-99.99,,2013-01-16 00:43:00,
2013-01-15 19:52:00,28.0,20.0,-100.00,North,5,6.0,12.0,72,-99.99,,,-99.99,,2013-01-16 00:52:00,
2013-01-15 20:03:00,28.0,20.0,-100.00,North,5,8.0,12.0,73,-99.99,,,-99.99,,2013-01-16 01:03:00,
2013-01-15 20:12:00,28.0,20.0,-100.00,North,5,8.0,12.0,73,-99.99,,,-99.99,,2013-01-16 01:12:00,
2013-01-15 20:23:00,28.0,20.0,-100.00,North,5,8.0,12.0,73,-99.99,,,-99.99,,2013-01-16 01:23:00,
2013-01-15 20:33:00,28.0,21.0,-100.00,North,5,7.0,10.0,75,-99.99,,,-99.99,,2013-01-16 01:33:00,
2013-01-15 20:43:00,28.0,21.0,-100.00,North,5,7.0,10.0,75,-99.99,,,-99.99,,2013-01-16 01:43:00,
2013-01-15 20:52:00,28.0,21.0,-100.00,North,5,7.0,10.0,75,-99.99,,,-99.99,,2013-01-16 01:52:00,
2013-01-15 21:12:00,27.0,21.0,-100.00,North,5,8.0,12.0,77,-99.99,,,-99.99,,2013-01-16 02:12:00,
2013-01-15 21:23:00,27.0,21.0,-100.00,North,5,8.0,12.0,77,-99.99,,,-99.99,,2013-01-16 02:23:00,
2013-01-15 21:43:00,27.0,22.0,-100.00,North,5,7.0,9.0,80,-99.99,,,-99.99,,2013-01-16 02:43:00,
2013-01-15 21:53:00,27.0,22.0,-100.00,North,5,7.0,9.0,80,-99.99,,,-99.99,,2013-01-16 02:53:00,
2013-01-15 22:12:00,27.0,22.0,-100.00,North,5,5.0,7.0,82,-99.99,,,-99.99,,2013-01-16 03:12:00,
2013-01-15 22:22:00,27.0,22.0,-100.00,North,5,5.0,7.0,82,-99.99,,,-99.99,,2013-01-16 03:22:00,
2013-01-15 22:33:00,27.0,22.0,-100.00,North,5,4.0,7.0,84,-99.99,,,-99.99,,2013-01-16 03:33:00,
2013-01-15 22:43:00,27.0,22.0,-100.00,North,5,4.0,7.0,84,-99.99,,,-99.99,,2013-01-16 03:43:00,
2013-01-15 22:52:00,27.0,22.0,-100.00,North,5,4.0,7.0,84,-99.99,,,-99.99,,2013-01-16 03:52:00,
2013-01-15 23:12:00,26.0,22.0,-100.00,North,5,4.0,6.0,85,-99.99,,,-99.99,,2013-01-16 04:12:00,
2013-01-15 23:22:00,26.0,22.0,-100.00,North,5,4.0,6.0,85,-99.99,,,-99.99,,2013-01-16 04:22:00,
2013-01-15 23:23:00,25.0,22.0,-100.00,North,5,4.0,6.0,88,-99.99,,,-99.99,,2013-01-16 04:23:00,
2013-01-15 23:52:00,25.0,22.0,-100.00,North,5,2.0,6.0,89,-99.99,,,-99.99,,2013-01-16 04:52:00,